createdAt,value
2022-12-15T00:02:25.351Z,6.15
2022-12-15T00:05:10.298Z,7.32
2022-12-15T00:07:55.532Z,6.72
2022-12-15T00:10:40.709Z,6.45
2022-12-15T00:13:31.352Z,6.17
2022-12-15T00:16:17.201Z,5.75
2022-12-15T00:19:02.798Z,5.10
2022-12-15T00:21:48.503Z,5.72
2022-12-15T00:24:33.675Z,5.22
2022-12-15T00:27:19.348Z,3.83
2022-12-15T00:30:04.889Z,6.03
2022-12-15T00:32:50.119Z,5.30
2022-12-15T00:35:35.421Z,4.53
2022-12-15T00:38:29.006Z,4.80
2022-12-15T00:40:59.330Z,4.50
2022-12-15T00:43:28.549Z,4.35
2022-12-15T00:46:14.089Z,4.72
2022-12-15T00:48:41.281Z,4.75
2022-12-15T00:51:08.435Z,5.43
2022-12-15T00:53:53.915Z,6.03
2022-12-15T00:56:39.270Z,5.25
2022-12-15T00:59:24.639Z,6.35
2022-12-15T01:02:09.977Z,6.40
2022-12-15T01:04:55.239Z,5.30
2022-12-15T01:07:40.411Z,5.87
2022-12-15T01:10:26.243Z,6.17
2022-12-15T01:13:11.871Z,6.47
2022-12-15T01:15:57.626Z,6.72
2022-12-15T01:18:42.931Z,6.50
2022-12-15T01:21:11.215Z,6.30
2022-12-15T01:23:38.959Z,6.68
2022-12-15T01:26:06.790Z,6.43
2022-12-15T01:28:33.353Z,6.60
2022-12-15T01:31:00.191Z,7.25
2022-12-15T01:33:26.847Z,5.68
2022-12-15T01:35:57.386Z,5.28
2022-12-15T01:38:24.495Z,5.80
2022-12-15T01:40:58.769Z,5.75
2022-12-15T01:43:29.518Z,6.88
2022-12-15T01:46:06.857Z,6.88
2022-12-15T01:48:38.123Z,7.47
2022-12-15T01:51:19.422Z,5.45
2022-12-15T01:54:26.525Z,5.75
2022-12-15T01:56:58.527Z,5.45
2022-12-15T01:59:41.023Z,5.78
2022-12-15T02:02:08.339Z,4.40
2022-12-15T02:04:35.346Z,4.43
2022-12-15T02:07:04.125Z,4.35
2022-12-15T02:09:31.185Z,4.40
2022-12-15T02:12:07.117Z,3.97
2022-12-15T02:14:58.292Z,4.20
2022-12-15T02:17:27.818Z,3.80
2022-12-15T02:20:09.344Z,3.47
2022-12-15T02:22:59.168Z,4.35
2022-12-15T02:25:34.875Z,3.85
2022-12-15T02:28:08.408Z,3.47
2022-12-15T02:31:14.450Z,3.38
2022-12-15T02:33:51.952Z,3.42
2022-12-15T02:36:28.444Z,5.15
2022-12-15T02:38:55.426Z,4.00
2022-12-15T02:41:46.185Z,4.72
2022-12-15T02:44:31.731Z,4.40
2022-12-15T02:47:19.772Z,4.43
2022-12-15T02:50:11.172Z,3.60
2022-12-15T02:52:40.861Z,4.35
2022-12-15T02:55:17.114Z,4.60
2022-12-15T02:58:06.845Z,4.45
2022-12-15T03:00:40.878Z,3.30
2022-12-15T03:03:08.385Z,3.30
2022-12-15T03:05:35.614Z,3.72
2022-12-15T03:08:02.361Z,3.10
2022-12-15T03:10:29.128Z,3.60
2022-12-15T03:12:55.910Z,2.88
2022-12-15T03:15:22.603Z,3.67
2022-12-15T03:17:49.370Z,3.38
2022-12-15T03:20:16.051Z,3.60
2022-12-15T03:22:42.782Z,3.95
2022-12-15T03:25:09.526Z,3.20
2022-12-15T03:27:36.362Z,3.72
2022-12-15T03:30:03.737Z,3.88
2022-12-15T03:32:30.515Z,3.72
2022-12-15T03:34:57.487Z,3.88
2022-12-15T03:37:24.147Z,3.85
2022-12-15T03:39:50.855Z,3.95
2022-12-15T03:42:37.610Z,4.72
2022-12-15T03:45:04.866Z,4.25
2022-12-15T03:47:32.039Z,4.30
2022-12-15T03:49:58.664Z,4.55
2022-12-15T03:52:25.594Z,5.57
2022-12-15T03:54:52.474Z,5.05
2022-12-15T03:57:19.099Z,3.85
2022-12-15T03:59:45.771Z,4.45
2022-12-15T04:02:12.661Z,4.55
2022-12-15T04:04:39.703Z,4.80
2022-12-15T04:07:06.398Z,4.32
2022-12-15T04:09:33.063Z,4.05
2022-12-15T04:11:59.655Z,3.92
2022-12-15T04:14:26.339Z,3.72
2022-12-15T04:16:53.067Z,3.85
2022-12-15T04:19:38.446Z,4.95
2022-12-15T04:22:05.105Z,3.90
2022-12-15T04:24:50.385Z,4.35
2022-12-15T04:27:35.538Z,3.72
2022-12-15T04:30:20.839Z,2.97
2022-12-15T04:33:06.097Z,3.78
2022-12-15T04:35:52.890Z,3.20
2022-12-15T04:38:49.886Z,3.83
2022-12-15T04:41:37.857Z,3.15
2022-12-15T04:44:23.790Z,4.07
2022-12-15T04:47:09.054Z,4.63
2022-12-15T04:49:54.230Z,3.85
2022-12-15T04:52:39.416Z,3.47
2022-12-15T04:55:25.451Z,3.13
2022-12-15T04:58:10.688Z,3.70
2022-12-15T05:00:55.976Z,3.13
2022-12-15T05:03:41.046Z,3.70
2022-12-15T05:06:26.702Z,3.57
2022-12-15T05:09:11.949Z,3.17
2022-12-15T05:11:57.323Z,3.60
2022-12-15T05:14:42.570Z,4.03
2022-12-15T05:17:28.056Z,3.63
2022-12-15T05:20:13.423Z,3.13
2022-12-15T05:22:59.562Z,3.08
2022-12-15T05:28:30.053Z,3.72
2022-12-15T05:31:15.501Z,3.35
2022-12-15T05:33:42.274Z,4.18
2022-12-15T05:36:09.193Z,3.70
2022-12-15T05:38:35.964Z,3.35
2022-12-15T05:41:02.555Z,3.72
2022-12-15T05:43:29.831Z,2.97
2022-12-15T05:45:56.690Z,2.75
2022-12-15T05:48:23.398Z,3.10
2022-12-15T05:50:50.602Z,3.50
2022-12-15T05:53:17.384Z,3.40
2022-12-15T05:55:44.158Z,3.53
2022-12-15T05:58:10.751Z,3.28
2022-12-15T06:00:37.487Z,3.03
2022-12-15T06:03:04.528Z,3.55
2022-12-15T06:05:31.147Z,3.22
2022-12-15T06:07:59.951Z,3.90
2022-12-15T06:10:26.696Z,3.20
2022-12-15T06:12:54.205Z,3.08
2022-12-15T06:15:20.807Z,3.15
2022-12-15T06:17:49.776Z,4.07
2022-12-15T06:20:16.583Z,3.05
2022-12-15T06:22:49.448Z,2.95
2022-12-15T06:25:17.714Z,2.95
2022-12-15T06:27:44.354Z,3.30
2022-12-15T06:30:11.248Z,3.17
2022-12-15T06:32:37.796Z,3.05
2022-12-15T06:35:04.805Z,3.13
2022-12-15T06:37:31.335Z,3.03
2022-12-15T06:39:57.924Z,3.42
2022-12-15T06:42:24.576Z,3.42
2022-12-15T06:44:51.285Z,4.15
2022-12-15T06:47:17.878Z,3.03
2022-12-15T06:49:44.618Z,3.42
2022-12-15T06:52:11.215Z,3.00
2022-12-15T06:54:38.660Z,3.15
2022-12-15T06:57:05.745Z,3.17
2022-12-15T06:59:32.361Z,2.97
2022-12-15T07:02:00.541Z,3.45
2022-12-15T07:04:27.512Z,3.58
2022-12-15T07:06:54.306Z,3.20
2022-12-15T07:09:21.017Z,3.50
2022-12-15T07:11:50.346Z,3.22
2022-12-15T07:14:17.095Z,3.70
2022-12-15T07:16:43.974Z,4.10
2022-12-15T07:19:12.560Z,3.83
2022-12-15T07:21:39.198Z,3.78
2022-12-15T07:24:06.492Z,2.90
2022-12-15T07:26:34.112Z,3.75
2022-12-15T07:29:00.779Z,3.75
2022-12-15T07:31:27.471Z,3.63
2022-12-15T07:33:54.878Z,3.60
2022-12-15T07:36:22.094Z,3.70
2022-12-15T07:38:49.926Z,3.95
2022-12-15T07:41:18.559Z,5.68
2022-12-15T07:43:46.593Z,4.97
2022-12-15T07:46:14.166Z,4.95
2022-12-15T07:48:41.104Z,4.90
2022-12-15T07:51:17.113Z,5.80
2022-12-15T07:53:46.833Z,4.97
2022-12-15T07:56:13.985Z,4.90
2022-12-15T07:58:40.998Z,4.88
2022-12-15T08:01:10.520Z,4.13
2022-12-15T08:03:38.823Z,5.05
2022-12-15T08:06:11.707Z,5.28
2022-12-15T08:08:39.576Z,4.72
2022-12-15T08:11:07.547Z,4.68
2022-12-15T08:16:22.216Z,4.50
2022-12-15T08:18:49.138Z,5.32
2022-12-15T08:21:16.208Z,5.60
2022-12-15T08:23:42.822Z,5.50
2022-12-15T08:26:12.273Z,5.50
2022-12-15T08:28:40.169Z,4.88
2022-12-15T08:31:18.821Z,5.25
2022-12-15T08:33:46.503Z,4.70
2022-12-15T08:36:14.901Z,4.80
2022-12-15T08:38:43.452Z,5.07
2022-12-15T08:41:16.891Z,4.72
2022-12-15T08:43:48.695Z,4.30
2022-12-15T08:46:17.999Z,4.82
2022-12-15T08:48:45.147Z,5.35
2022-12-15T08:51:12.072Z,5.28
2022-12-15T08:53:38.825Z,4.82
2022-12-15T08:56:17.290Z,4.22
2022-12-15T08:58:45.561Z,5.07
2022-12-15T09:01:22.896Z,4.47
2022-12-15T09:03:52.245Z,4.55
2022-12-15T09:06:22.419Z,5.15
2022-12-15T09:08:50.496Z,4.68
2022-12-15T09:11:17.624Z,5.18
2022-12-15T09:13:44.614Z,5.05
2022-12-15T09:16:14.103Z,5.57
2022-12-15T09:18:52.722Z,4.72
2022-12-15T09:21:25.091Z,4.40
2022-12-15T09:23:54.760Z,4.60
2022-12-15T09:26:23.131Z,4.53
2022-12-15T09:28:51.880Z,5.05
2022-12-15T09:31:24.589Z,5.85
2022-12-15T09:33:53.401Z,5.07
2022-12-15T09:36:21.235Z,7.22
2022-12-15T09:38:48.040Z,7.00
2022-12-15T09:41:17.270Z,6.95
2022-12-15T09:44:11.678Z,5.90
2022-12-15T09:47:05.855Z,6.95
2022-12-15T09:49:35.319Z,4.80
2022-12-15T09:52:29.319Z,5.28
2022-12-15T09:54:58.221Z,5.43
2022-12-15T09:57:45.977Z,6.07
2022-12-15T10:00:41.818Z,6.32
2022-12-15T10:03:32.945Z,5.55
2022-12-15T10:06:21.476Z,6.10
2022-12-15T10:08:58.423Z,6.30
2022-12-15T10:11:45.259Z,6.05
2022-12-15T10:14:36.022Z,5.75
2022-12-15T10:17:06.976Z,5.43
2022-12-15T10:19:41.862Z,5.82
2022-12-15T10:22:27.143Z,4.78
2022-12-15T10:25:11.139Z,5.10
2022-12-15T10:27:53.430Z,5.70
2022-12-15T10:30:21.791Z,7.63
2022-12-15T10:33:25.323Z,6.28
2022-12-15T10:35:55.500Z,6.75
2022-12-15T10:38:38.225Z,5.75
2022-12-15T10:41:08.270Z,7.78
2022-12-15T10:43:38.216Z,7.97
2022-12-15T10:46:21.985Z,8.63
2022-12-15T10:48:56.441Z,8.20
2022-12-15T10:51:37.060Z,8.18
2022-12-15T10:54:13.276Z,6.68
2022-12-15T10:56:52.983Z,6.18
2022-12-15T10:59:25.876Z,6.65
2022-12-15T11:01:53.360Z,6.53
2022-12-15T11:04:30.667Z,5.45
2022-12-15T11:06:59.708Z,5.72
2022-12-15T11:09:38.534Z,5.07
2022-12-15T11:12:38.472Z,5.97
2022-12-15T11:15:23.510Z,5.85
2022-12-15T11:18:11.210Z,6.00
2022-12-15T11:20:42.338Z,6.70
2022-12-15T11:23:21.711Z,7.60
2022-12-15T11:26:13.700Z,6.97
2022-12-15T11:28:50.894Z,7.28
2022-12-15T11:31:29.541Z,6.78
2022-12-15T11:33:56.258Z,8.02
2022-12-15T11:36:22.998Z,6.72
2022-12-15T11:38:59.384Z,7.30
2022-12-15T11:42:17.521Z,5.90
2022-12-15T11:45:04.549Z,5.50
2022-12-15T11:47:34.053Z,6.95
2022-12-15T11:50:17.311Z,6.13
2022-12-15T11:53:21.354Z,6.50
2022-12-15T11:56:02.157Z,5.22
2022-12-15T11:58:56.212Z,5.18
2022-12-15T12:01:28.948Z,5.50
2022-12-15T12:04:20.573Z,5.70
2022-12-15T12:07:23.484Z,6.22
2022-12-15T12:10:29.110Z,6.30
2022-12-15T12:12:58.600Z,6.35
2022-12-15T12:15:35.396Z,6.38
2022-12-15T12:18:11.879Z,5.63
2022-12-15T12:20:55.701Z,5.35
2022-12-15T12:23:30.181Z,6.25
2022-12-15T12:26:19.345Z,6.85
2022-12-15T12:28:48.883Z,7.63
2022-12-15T12:31:41.595Z,6.65
2022-12-15T12:34:20.268Z,7.18
2022-12-15T12:36:49.152Z,6.55
2022-12-15T12:39:22.670Z,6.07
2022-12-15T12:42:15.094Z,6.30
2022-12-15T12:44:41.834Z,6.07
2022-12-15T12:47:26.249Z,6.43
2022-12-15T12:50:39.486Z,6.10
2022-12-15T12:53:06.247Z,6.88
2022-12-15T12:55:32.801Z,6.78
2022-12-15T12:57:59.501Z,6.05
2022-12-15T13:00:28.592Z,7.10
2022-12-15T13:03:19.890Z,5.82
2022-12-15T13:08:51.741Z,6.72
2022-12-15T13:11:51.069Z,6.25
2022-12-15T13:14:29.957Z,7.43
2022-12-15T13:17:25.545Z,10.35
2022-12-15T13:19:58.568Z,10.27
2022-12-15T13:22:43.775Z,7.47
2022-12-15T13:25:37.525Z,10.75
2022-12-15T13:28:18.324Z,13.63
2022-12-15T13:31:16.644Z,17.40
2022-12-15T13:33:49.247Z,11.23
2022-12-15T13:36:37.789Z,7.90
2022-12-15T13:39:27.388Z,7.45
2022-12-15T13:42:31.516Z,6.95
2022-12-15T13:44:48.807Z,7.50
2022-12-15T13:47:22.165Z,9.20
2022-12-15T13:50:02.309Z,7.15
2022-12-15T13:53:08.663Z,6.60
2022-12-15T13:55:31.463Z,8.48
2022-12-15T13:58:05.329Z,9.90
2022-12-15T14:00:32.797Z,8.77
2022-12-15T14:03:07.246Z,8.38
2022-12-15T14:05:33.998Z,8.13
2022-12-15T14:08:02.936Z,9.48
2022-12-15T14:10:44.493Z,8.10
2022-12-15T14:13:34.086Z,8.35
2022-12-15T14:16:22.483Z,8.15
2022-12-15T14:19:15.617Z,7.63
2022-12-15T14:21:52.949Z,7.43
2022-12-15T14:24:39.872Z,7.20
2022-12-15T14:27:07.576Z,7.25
2022-12-15T14:29:34.429Z,6.95
2022-12-15T14:32:01.381Z,7.32
2022-12-15T14:34:33.235Z,7.72
2022-12-15T14:37:03.435Z,7.25
2022-12-15T14:39:39.547Z,7.25
2022-12-15T14:42:07.937Z,7.32
2022-12-15T14:44:41.137Z,6.90
2022-12-15T14:47:33.762Z,6.30
2022-12-15T14:50:02.553Z,7.05
2022-12-15T14:52:39.095Z,7.53
2022-12-15T14:55:20.914Z,7.85
2022-12-15T14:57:48.319Z,7.68
2022-12-15T15:00:28.398Z,7.35
2022-12-15T15:03:12.903Z,6.75
2022-12-15T15:06:01.159Z,12.35
2022-12-15T15:08:32.233Z,7.97
2022-12-15T15:11:03.666Z,8.13
2022-12-15T15:13:40.657Z,8.23
2022-12-15T15:16:15.685Z,7.45
2022-12-15T15:18:43.383Z,7.20
2022-12-15T15:21:23.213Z,7.35
2022-12-15T15:24:09.446Z,7.40
2022-12-15T15:26:36.355Z,7.15
2022-12-15T15:29:03.870Z,6.72
2022-12-15T15:31:41.504Z,8.18
2022-12-15T15:34:08.886Z,10.45
2022-12-15T15:36:38.272Z,11.95
2022-12-15T15:39:15.167Z,15.18
2022-12-15T15:41:42.676Z,14.30
2022-12-15T15:44:14.549Z,14.07
2022-12-15T15:47:00.229Z,17.30
2022-12-15T15:49:27.357Z,16.83
2022-12-15T15:51:56.054Z,18.50
2022-12-15T15:54:27.613Z,16.83
2022-12-15T15:56:54.292Z,13.82
2022-12-15T15:59:22.864Z,15.15
2022-12-15T16:01:59.219Z,20.63
2022-12-15T16:04:27.033Z,18.95
2022-12-15T16:06:54.022Z,19.60
2022-12-15T16:09:21.154Z,17.23
2022-12-15T16:11:47.854Z,17.17
2022-12-15T16:14:17.099Z,12.93
2022-12-15T16:16:44.728Z,10.55
2022-12-15T16:19:14.310Z,9.75
2022-12-15T16:21:42.599Z,10.40
2022-12-15T16:24:13.770Z,11.73
2022-12-15T16:26:47.307Z,11.10
2022-12-15T16:29:16.127Z,16.15
2022-12-15T16:31:45.632Z,12.57
2022-12-15T16:34:13.980Z,12.85
2022-12-15T16:36:41.072Z,13.50
2022-12-15T16:39:30.810Z,14.32
2022-12-15T16:41:58.228Z,12.63
2022-12-15T16:44:26.539Z,10.90
2022-12-15T16:46:53.342Z,14.15
2022-12-15T16:49:20.391Z,12.63
2022-12-15T16:51:50.432Z,11.55
2022-12-15T16:54:20.996Z,12.32
2022-12-15T16:56:48.755Z,11.48
2022-12-15T16:59:38.647Z,12.57
2022-12-15T17:02:28.432Z,12.40
2022-12-15T17:04:55.614Z,13.25
2022-12-15T17:07:24.093Z,12.60
2022-12-15T17:09:51.298Z,13.93
2022-12-15T17:12:18.797Z,12.27
2022-12-15T17:14:46.194Z,14.35
2022-12-15T17:17:18.214Z,18.35
2022-12-15T17:20:11.748Z,15.77
2022-12-15T17:22:33.251Z,17.60
2022-12-15T17:25:00.051Z,19.02
2022-12-15T17:27:29.412Z,18.48
2022-12-15T17:29:59.522Z,17.35
2022-12-15T17:32:26.750Z,18.08
2022-12-15T17:34:53.462Z,16.95
2022-12-15T17:37:20.170Z,14.63
2022-12-15T17:39:51.245Z,14.18
2022-12-15T17:42:20.547Z,15.23
2022-12-15T17:44:48.620Z,16.60
2022-12-15T17:47:16.607Z,15.75
2022-12-15T17:49:43.826Z,17.65
2022-12-15T17:52:26.230Z,15.90
2022-12-15T17:54:53.504Z,15.93
2022-12-15T17:57:20.270Z,12.63
2022-12-15T17:59:47.298Z,13.50
2022-12-15T18:02:14.486Z,12.00
2022-12-15T18:04:42.172Z,12.52
2022-12-15T18:07:21.493Z,12.25
2022-12-15T18:09:50.090Z,12.43
2022-12-15T18:12:26.188Z,11.82
2022-12-15T18:14:54.362Z,11.80
2022-12-15T18:17:21.416Z,10.90
2022-12-15T18:19:48.780Z,10.57
2022-12-15T18:22:23.757Z,12.18
2022-12-15T18:24:52.894Z,10.82
2022-12-15T18:27:28.180Z,10.52
2022-12-15T18:29:56.492Z,10.90
2022-12-15T18:32:25.837Z,10.82
2022-12-15T18:34:53.482Z,10.77
2022-12-15T18:37:23.061Z,10.65
2022-12-15T18:39:50.705Z,10.98
2022-12-15T18:42:20.453Z,13.48
2022-12-15T18:44:50.288Z,12.20
2022-12-15T18:47:18.893Z,12.65
2022-12-15T18:49:45.860Z,12.57
2022-12-15T18:52:23.847Z,12.68
2022-12-15T18:54:53.223Z,12.52
2022-12-15T18:57:28.752Z,12.50
2022-12-15T19:02:26.239Z,10.18
2022-12-15T19:04:53.043Z,10.65
2022-12-15T19:07:19.776Z,11.30
2022-12-15T19:09:46.530Z,9.35
2022-12-15T19:12:18.733Z,10.48
2022-12-15T19:14:47.454Z,9.57
2022-12-15T19:17:37.968Z,9.80
2022-12-15T19:20:30.612Z,9.48
2022-12-15T19:22:57.260Z,10.63
2022-12-15T19:25:30.628Z,9.75
2022-12-15T19:27:59.812Z,10.45
2022-12-15T19:30:36.977Z,13.65
2022-12-15T19:33:09.219Z,11.18
2022-12-15T19:35:36.995Z,11.02
2022-12-15T19:38:04.906Z,14.77
2022-12-15T19:40:34.458Z,15.57
2022-12-15T19:43:04.204Z,19.65
2022-12-15T19:45:32.270Z,20.38
2022-12-15T19:47:59.122Z,17.83
2022-12-15T19:50:30.438Z,18.13
2022-12-15T19:53:00.238Z,16.00
2022-12-15T19:55:30.066Z,14.30
2022-12-15T19:57:56.720Z,12.05
2022-12-15T20:00:24.848Z,11.98
2022-12-15T20:02:54.682Z,10.88
2022-12-15T20:05:24.036Z,10.98
2022-12-15T20:07:53.672Z,12.23
2022-12-15T20:10:31.269Z,10.90
2022-12-15T20:12:59.023Z,12.15
2022-12-15T20:15:26.339Z,12.40
2022-12-15T20:17:59.013Z,12.20
2022-12-15T20:20:27.954Z,11.57
2022-12-15T20:22:58.846Z,10.52
2022-12-15T20:25:28.599Z,10.63
2022-12-15T20:27:56.322Z,9.35
2022-12-15T20:30:26.871Z,7.78
2022-12-15T20:32:53.850Z,8.63
2022-12-15T20:35:22.458Z,8.82
2022-12-15T20:37:50.316Z,8.90
2022-12-15T20:40:20.716Z,9.38
2022-12-15T20:42:48.143Z,9.15
2022-12-15T20:45:16.648Z,7.55
2022-12-15T20:47:46.176Z,7.68
2022-12-15T20:50:31.747Z,7.72
2022-12-15T20:52:58.549Z,7.05
2022-12-15T20:55:25.351Z,7.45
2022-12-15T20:57:52.307Z,7.55
2022-12-15T21:00:19.489Z,8.38
2022-12-15T21:02:46.901Z,7.78
2022-12-15T21:05:19.849Z,8.70
2022-12-15T21:07:47.263Z,9.38
2022-12-15T21:10:16.045Z,9.23
2022-12-15T21:12:45.551Z,9.35
2022-12-15T21:15:15.202Z,8.52
2022-12-15T21:17:42.828Z,9.95
2022-12-15T21:20:11.755Z,9.73
2022-12-15T21:22:38.945Z,9.32
2022-12-15T21:25:16.598Z,10.05
2022-12-15T21:27:43.339Z,9.15
2022-12-15T21:30:20.542Z,9.95
2022-12-15T21:32:48.891Z,9.77
2022-12-15T21:35:17.347Z,9.15
2022-12-15T21:37:47.248Z,8.85
2022-12-15T21:40:22.018Z,9.10
2022-12-15T21:42:50.023Z,9.90
2022-12-15T21:45:22.393Z,7.82
2022-12-15T21:48:09.752Z,8.50
2022-12-15T21:50:37.955Z,8.15
2022-12-15T21:53:06.365Z,7.63
2022-12-15T21:55:33.555Z,7.75
2022-12-15T21:58:00.165Z,7.82
2022-12-15T22:00:26.968Z,7.60
2022-12-15T22:02:54.496Z,7.30
2022-12-15T22:05:30.249Z,7.65
2022-12-15T22:10:42.984Z,7.28
2022-12-15T22:13:14.802Z,7.57
2022-12-15T22:15:41.506Z,7.05
2022-12-15T22:18:12.015Z,6.82
2022-12-15T22:20:39.248Z,7.05
2022-12-15T22:23:06.108Z,7.65
2022-12-15T22:25:32.720Z,6.35
2022-12-15T22:27:59.347Z,7.80
2022-12-15T22:30:27.158Z,7.07
2022-12-15T22:32:54.204Z,7.68
2022-12-15T22:35:25.949Z,7.03
2022-12-15T22:37:53.969Z,7.10
2022-12-15T22:40:22.957Z,5.97
2022-12-15T22:42:53.549Z,5.57
2022-12-15T22:45:24.007Z,5.72
2022-12-15T22:47:52.408Z,5.88
2022-12-15T22:50:23.532Z,5.55
2022-12-15T22:52:50.696Z,5.57
2022-12-15T22:55:20.860Z,5.57
2022-12-15T22:57:56.719Z,5.20
2022-12-15T23:00:23.436Z,5.25
2022-12-15T23:02:51.024Z,5.07
2022-12-15T23:05:20.203Z,5.00
2022-12-15T23:07:47.063Z,4.63
2022-12-15T23:10:39.233Z,4.63
2022-12-15T23:13:06.490Z,4.30
2022-12-15T23:15:52.173Z,4.18
2022-12-15T23:18:19.171Z,4.25
2022-12-15T23:20:45.769Z,4.40
2022-12-15T23:23:12.766Z,3.75
2022-12-15T23:25:39.439Z,3.70
2022-12-15T23:28:06.149Z,3.60
2022-12-15T23:30:32.835Z,3.47
2022-12-15T23:32:59.842Z,3.35
2022-12-15T23:35:26.781Z,3.13
2022-12-15T23:37:53.484Z,3.72
2022-12-15T23:40:22.229Z,3.65
2022-12-15T23:42:50.512Z,3.67
2022-12-15T23:45:18.162Z,2.97
2022-12-15T23:47:45.101Z,3.20
2022-12-15T23:50:11.795Z,3.25
2022-12-15T23:52:38.835Z,3.15
2022-12-15T23:55:09.912Z,3.38
2022-12-15T23:57:38.063Z,2.95
